Impacts TAF Board
For situational awareness. Not to be used for flight planning purposes.
IDs:

KMSP - Minneapolis-St Paul, MN, US

Issued at 2100 UTC 18 Nov 2018
Updated at 2224 UTC 18 Nov 2018
Potential Impact None Slight Moderate High
Time2153Z 18/23Z 19/00Z 19/01Z 19/02Z 19/03Z 19/04Z 19/05Z 19/06Z 19/07Z 19/08Z 19/09Z 19/10Z 19/11Z>>
Type OBS PRVL PRVL PRVL PRVL PRVL PRVL PRVL PRVL PRVL PRVL PRVL PRVL PRVL
VIS 10 >6 >6 >6 >6 >6 >6 >6 >6 >6 >6 >6 >6 >6
CIG 250 200 200 200 200 200 200 200 200 200 25 25 25 25
Cover BKN BKN BKN BKN BKN BKN BKN BKN BKN BKN BKN BKN BKN BKN
FltCat VFR VFR VFR VFR VFR VFR VFR VFR VFR VFR MVFR MVFR MVFR MVFR
WX -- -- -- -- -- -- -- -- -- -- VCSH VCSH VCSH VCSH
WDir 210 200 200 200 200 200 200 200 200 200 VRB VRB VRB VRB
WSpd 8 6 6 6 6 6 6 6 6 6 3 3 3 3
WGst -- -- -- -- -- -- -- -- -- -- -- -- -- --
Raw TAF
KMSP 182100Z 1821/1924 20006KT P6SM BKN200
  FM190800 VRB03KT P6SM VCSH BKN025
  FM191200 35006KT P6SM BKN015
  FM192000 35010KT P6SM BKN035


Raw METAR
KMSP 182153Z 21008KT 10SM SCT160 BKN250 M03/M10 A3007 RMK AO2 SLP198 T10331100
KMSP 182053Z 19010KT 10SM FEW190 BKN250 M03/M11 A3009 RMK AO2 SLP204 T10331106 56029
KMSP 181953Z 19009KT 10SM FEW190 BKN250 M03/M11 A3010 RMK AO2 SLP208 T10331106

METAR Board
Radar Display
Forecast Discussion
For situational awareness. Not to be used for flight planning purposes.